createdAt,value
2022-10-18T00:01:08.789Z,0.90
2022-10-18T00:03:38.637Z,0.70
2022-10-18T00:06:08.560Z,0.90
2022-10-18T00:08:37.093Z,0.97
2022-10-18T00:11:06.913Z,0.90
2022-10-18T00:13:33.528Z,0.97
2022-10-18T00:16:04.143Z,0.90
2022-10-18T00:18:30.797Z,1.20
2022-10-18T00:20:59.210Z,1.80
2022-10-18T00:23:26.907Z,1.50
2022-10-18T00:26:07.659Z,1.07
2022-10-18T00:28:35.610Z,1.17
2022-10-18T00:31:18.930Z,1.30
2022-10-18T00:33:47.627Z,1.30
2022-10-18T00:36:14.597Z,1.23
2022-10-18T00:38:41.982Z,0.90
2022-10-18T00:41:10.967Z,0.80
2022-10-18T00:44:13.089Z,0.70
2022-10-18T00:46:42.811Z,1.00
2022-10-18T00:49:25.393Z,1.00
2022-10-18T00:51:56.486Z,1.10
2022-10-18T00:54:24.033Z,1.00
2022-10-18T00:56:51.246Z,0.70
2022-10-18T00:59:19.167Z,0.60
2022-10-18T01:01:46.174Z,0.83
2022-10-18T01:04:15.024Z,0.80
2022-10-18T01:07:01.505Z,0.93
2022-10-18T01:09:41.677Z,0.97
2022-10-18T01:12:52.053Z,0.80
2022-10-18T01:15:27.883Z,0.80
2022-10-18T01:18:21.311Z,1.10
2022-10-18T01:21:15.139Z,1.00
2022-10-18T01:24:10.829Z,0.90
2022-10-18T01:26:55.733Z,0.90
2022-10-18T01:30:04.211Z,0.80
2022-10-18T01:32:44.327Z,1.20
2022-10-18T01:35:16.616Z,1.00
2022-10-18T01:37:46.551Z,1.00
2022-10-18T01:40:17.996Z,1.10
2022-10-18T01:42:47.826Z,1.00
2022-10-18T01:45:16.699Z,0.90
2022-10-18T01:47:45.807Z,1.13
2022-10-18T01:50:12.705Z,0.90
2022-10-18T01:52:49.903Z,1.10
2022-10-18T01:55:17.611Z,1.20
2022-10-18T01:58:00.235Z,1.20
2022-10-18T02:00:42.597Z,1.20
2022-10-18T02:03:23.386Z,1.10
2022-10-18T02:06:05.099Z,0.80
2022-10-18T02:08:45.908Z,0.90
2022-10-18T02:11:15.851Z,0.97
2022-10-18T02:13:53.049Z,0.90
2022-10-18T02:16:23.539Z,0.80
2022-10-18T02:19:09.059Z,0.90
2022-10-18T02:21:38.178Z,1.00
2022-10-18T02:24:06.907Z,1.17
2022-10-18T02:26:33.837Z,1.07
2022-10-18T02:29:00.570Z,0.90
2022-10-18T02:31:33.534Z,1.00
2022-10-18T02:34:21.810Z,1.00
2022-10-18T02:36:55.693Z,1.10
2022-10-18T02:39:36.746Z,1.50
2022-10-18T02:42:08.843Z,1.30
2022-10-18T02:44:35.978Z,1.20
2022-10-18T02:47:12.505Z,1.00
2022-10-18T02:49:39.145Z,1.20
2022-10-18T02:52:08.914Z,0.90
2022-10-18T02:54:35.521Z,1.40
2022-10-18T02:57:05.070Z,1.40
2022-10-18T02:59:31.750Z,1.30
2022-10-18T03:02:00.696Z,1.10
2022-10-18T03:06:57.514Z,0.97
2022-10-18T03:09:24.306Z,0.97
2022-10-18T03:11:54.045Z,0.80
2022-10-18T03:14:20.641Z,1.57
2022-10-18T03:16:47.299Z,1.00
2022-10-18T03:19:14.091Z,1.40
2022-10-18T03:21:43.202Z,1.10
2022-10-18T03:24:09.850Z,1.40
2022-10-18T03:26:39.461Z,1.70
2022-10-18T03:29:06.300Z,1.33
2022-10-18T03:31:35.943Z,1.10
2022-10-18T03:34:02.624Z,1.10
2022-10-18T03:36:33.852Z,1.20
2022-10-18T03:39:01.165Z,1.27
2022-10-18T03:41:28.109Z,1.50
2022-10-18T03:44:00.461Z,1.27
2022-10-18T03:46:29.299Z,1.00
2022-10-18T03:48:56.030Z,0.90
2022-10-18T03:51:24.814Z,1.20
2022-10-18T03:53:51.438Z,1.37
2022-10-18T03:56:18.129Z,1.00
2022-10-18T03:58:44.763Z,1.30
2022-10-18T04:01:11.573Z,1.40
2022-10-18T04:03:38.189Z,1.00
2022-10-18T04:06:10.034Z,1.10
2022-10-18T04:08:38.011Z,1.10
2022-10-18T04:11:09.588Z,1.00
2022-10-18T04:13:39.329Z,0.80
2022-10-18T04:16:08.663Z,1.10
2022-10-18T04:18:35.286Z,1.43
2022-10-18T04:21:02.410Z,0.80
2022-10-18T04:23:33.857Z,1.00
2022-10-18T04:26:03.217Z,1.03
2022-10-18T04:28:40.240Z,0.83
2022-10-18T04:31:17.146Z,0.93
2022-10-18T04:33:43.804Z,1.20
2022-10-18T04:36:10.511Z,1.20
2022-10-18T04:38:37.248Z,1.00
2022-10-18T04:41:06.186Z,0.90
2022-10-18T04:43:32.868Z,0.80
2022-10-18T04:45:59.506Z,0.80
2022-10-18T04:48:32.334Z,0.73
2022-10-18T04:51:01.984Z,0.83
2022-10-18T04:53:28.656Z,0.90
2022-10-18T04:55:57.738Z,0.83
2022-10-18T04:58:33.903Z,0.90
2022-10-18T05:01:00.818Z,0.90
2022-10-18T05:03:27.456Z,0.80
2022-10-18T05:06:01.952Z,0.80
2022-10-18T05:08:33.852Z,0.90
2022-10-18T05:11:01.105Z,0.60
2022-10-18T05:13:31.171Z,0.80
2022-10-18T05:16:03.272Z,0.80
2022-10-18T05:18:30.139Z,1.00
2022-10-18T05:20:56.962Z,1.00
2022-10-18T05:23:23.839Z,1.37
2022-10-18T05:25:53.690Z,1.27
2022-10-18T05:28:41.596Z,1.70
2022-10-18T05:31:11.963Z,1.10
2022-10-18T05:33:41.054Z,1.30
2022-10-18T05:36:08.344Z,1.40
2022-10-18T05:38:42.507Z,1.10
2022-10-18T05:41:12.528Z,1.30
2022-10-18T05:43:42.014Z,1.10
2022-10-18T05:46:14.758Z,1.40
2022-10-18T05:48:44.128Z,1.17
2022-10-18T05:51:10.906Z,1.20
2022-10-18T05:53:38.243Z,1.20
2022-10-18T05:56:06.271Z,1.00
2022-10-18T05:58:33.521Z,1.00
2022-10-18T06:01:01.277Z,1.20
2022-10-18T06:03:28.498Z,0.90
2022-10-18T06:06:00.408Z,0.90
2022-10-18T06:08:27.428Z,0.93
2022-10-18T06:10:56.125Z,0.83
2022-10-18T06:13:22.966Z,0.87
2022-10-18T06:15:52.445Z,0.87
2022-10-18T06:18:19.058Z,0.80
2022-10-18T06:20:45.655Z,1.00
2022-10-18T06:23:12.364Z,0.80
2022-10-18T06:25:39.028Z,1.00
2022-10-18T06:28:07.939Z,0.83
2022-10-18T06:30:37.125Z,0.80
2022-10-18T06:33:03.792Z,0.80
2022-10-18T06:35:30.481Z,0.60
2022-10-18T06:37:57.805Z,0.50
2022-10-18T06:40:24.861Z,0.33
2022-10-18T06:43:00.121Z,0.57
2022-10-18T06:45:33.978Z,0.47
2022-10-18T06:48:00.588Z,0.50
2022-10-18T06:50:27.166Z,0.23
2022-10-18T06:52:53.783Z,0.50
2022-10-18T06:55:20.371Z,0.40
2022-10-18T06:57:47.263Z,0.30
2022-10-18T07:00:14.560Z,0.33
2022-10-18T07:02:41.400Z,0.33
2022-10-18T07:05:09.339Z,0.30
2022-10-18T07:07:36.356Z,0.23
2022-10-18T07:10:04.751Z,0.40
2022-10-18T07:12:31.892Z,0.40
2022-10-18T07:14:58.597Z,0.30
2022-10-18T07:17:26.061Z,0.27
2022-10-18T07:19:52.723Z,0.27
2022-10-18T07:22:19.313Z,0.40
2022-10-18T07:24:45.882Z,0.53
2022-10-18T07:27:12.485Z,0.40
2022-10-18T07:29:39.753Z,0.30
2022-10-18T07:32:06.401Z,0.40
2022-10-18T07:34:33.078Z,0.50
2022-10-18T07:37:01.471Z,0.30
2022-10-18T07:39:28.123Z,0.37
2022-10-18T07:41:54.707Z,0.20
2022-10-18T07:44:21.433Z,0.30
2022-10-18T07:46:48.040Z,0.53
2022-10-18T07:49:21.955Z,0.50
2022-10-18T07:51:48.609Z,0.50
2022-10-18T07:54:15.365Z,0.30
2022-10-18T07:56:42.798Z,0.20
2022-10-18T07:59:13.031Z,0.37
2022-10-18T08:01:40.049Z,0.40
2022-10-18T08:04:09.039Z,0.30
2022-10-18T08:06:37.546Z,0.53
2022-10-18T08:09:04.509Z,0.47
2022-10-18T08:11:31.218Z,0.40
2022-10-18T08:13:57.899Z,0.40
2022-10-18T08:16:29.430Z,0.43
2022-10-18T08:18:58.918Z,0.40
2022-10-18T08:21:26.087Z,0.50
2022-10-18T08:23:53.952Z,0.63
2022-10-18T08:26:22.330Z,0.40
2022-10-18T08:28:58.379Z,0.37
2022-10-18T08:31:36.415Z,0.40
2022-10-18T08:34:03.022Z,0.60
2022-10-18T08:36:29.685Z,0.40
2022-10-18T08:38:56.325Z,0.83
2022-10-18T08:41:38.097Z,1.20
2022-10-18T08:44:10.544Z,1.17
2022-10-18T08:46:41.710Z,0.90
2022-10-18T08:49:17.818Z,0.70
2022-10-18T08:51:47.538Z,0.70
2022-10-18T08:54:18.763Z,0.80
2022-10-18T08:56:59.787Z,0.90
2022-10-18T08:59:31.644Z,1.13
2022-10-18T09:02:10.201Z,1.00
2022-10-18T09:04:58.707Z,1.00
2022-10-18T09:07:53.534Z,0.90
2022-10-18T09:10:45.490Z,0.60
2022-10-18T09:13:33.248Z,0.90
2022-10-18T09:16:02.881Z,1.07
2022-10-18T09:19:05.575Z,1.10
2022-10-18T09:22:09.855Z,1.23
2022-10-18T09:24:44.629Z,1.50
2022-10-18T09:27:19.030Z,1.77
2022-10-18T09:30:23.075Z,1.60
2022-10-18T09:33:00.740Z,1.33
2022-10-18T09:35:57.990Z,1.27
2022-10-18T09:38:32.095Z,0.80
2022-10-18T09:41:05.333Z,0.97
2022-10-18T09:43:50.606Z,0.90
2022-10-18T09:46:19.976Z,1.07
2022-10-18T09:48:56.652Z,1.13
2022-10-18T09:51:44.751Z,1.30
2022-10-18T09:54:14.099Z,0.70
2022-10-18T09:56:48.237Z,1.10
2022-10-18T09:59:34.055Z,2.23
2022-10-18T10:02:00.780Z,3.57
2022-10-18T10:04:27.930Z,1.00
2022-10-18T10:06:56.888Z,1.50
2022-10-18T10:09:36.214Z,0.63
2022-10-18T10:12:03.485Z,0.80
2022-10-18T10:14:30.865Z,0.73
2022-10-18T10:17:20.465Z,0.60
2022-10-18T10:20:21.228Z,0.73
2022-10-18T10:22:49.978Z,0.80
2022-10-18T10:25:32.862Z,0.93
2022-10-18T10:28:14.194Z,0.67
2022-10-18T10:30:40.840Z,0.77
2022-10-18T10:33:30.103Z,0.90
2022-10-18T10:36:02.215Z,0.50
2022-10-18T10:38:31.171Z,0.60
2022-10-18T10:40:59.126Z,0.63
2022-10-18T10:43:39.946Z,0.57
2022-10-18T10:46:16.542Z,0.50
2022-10-18T10:49:04.179Z,0.40
2022-10-18T10:51:40.346Z,0.60
2022-10-18T10:54:17.665Z,0.50
2022-10-18T10:57:11.301Z,0.77
2022-10-18T10:59:50.184Z,0.83
2022-10-18T11:02:17.697Z,0.93
2022-10-18T11:04:46.963Z,0.53
2022-10-18T11:07:41.634Z,0.60
2022-10-18T11:10:14.328Z,2.30
2022-10-18T11:13:03.260Z,0.93
2022-10-18T11:15:36.566Z,0.50
2022-10-18T11:18:05.165Z,0.40
2022-10-18T11:21:01.145Z,1.47
2022-10-18T11:23:32.485Z,0.43
2022-10-18T11:26:11.075Z,0.40
2022-10-18T11:29:05.489Z,0.33
2022-10-18T11:31:55.075Z,0.37
2022-10-18T11:34:30.837Z,0.63
2022-10-18T11:37:27.117Z,0.60
2022-10-18T11:40:07.516Z,0.60
2022-10-18T11:42:53.886Z,0.50
2022-10-18T11:45:45.965Z,0.60
2022-10-18T11:48:21.644Z,0.47
2022-10-18T11:51:18.488Z,0.50
2022-10-18T11:54:05.196Z,0.50
2022-10-18T11:56:47.546Z,0.40
2022-10-18T11:59:24.552Z,0.30
2022-10-18T12:02:35.605Z,0.30
2022-10-18T12:05:24.280Z,0.57
2022-10-18T12:08:03.507Z,0.30
2022-10-18T12:10:45.742Z,0.43
2022-10-18T12:13:29.485Z,0.60
2022-10-18T12:15:58.724Z,0.30
2022-10-18T12:18:26.481Z,0.50
2022-10-18T12:20:58.813Z,0.97
2022-10-18T12:23:43.958Z,0.40
2022-10-18T12:26:13.065Z,0.50
2022-10-18T12:28:55.107Z,0.30
2022-10-18T12:31:28.034Z,0.40
2022-10-18T12:34:06.152Z,0.47
2022-10-18T12:36:45.794Z,0.50
2022-10-18T12:39:43.662Z,0.67
2022-10-18T12:42:28.516Z,0.43
2022-10-18T12:45:33.551Z,0.43
2022-10-18T12:48:06.739Z,0.40
2022-10-18T12:50:36.943Z,0.37
2022-10-18T12:53:09.566Z,0.50
2022-10-18T12:55:38.495Z,0.63
2022-10-18T12:58:14.065Z,0.33
2022-10-18T13:00:43.463Z,0.37
2022-10-18T13:03:10.256Z,0.43
2022-10-18T13:05:54.704Z,0.60
2022-10-18T13:08:28.455Z,0.50
2022-10-18T13:11:10.198Z,0.50
2022-10-18T13:14:01.099Z,0.50
2022-10-18T13:16:54.281Z,0.57
2022-10-18T13:19:29.030Z,0.50
2022-10-18T13:22:11.014Z,0.53
2022-10-18T13:25:04.333Z,0.70
2022-10-18T13:27:42.233Z,0.97
2022-10-18T13:30:18.010Z,0.50
2022-10-18T13:32:58.571Z,0.50
2022-10-18T13:35:59.123Z,0.60
2022-10-18T13:38:47.316Z,0.60
2022-10-18T13:41:25.321Z,0.50
2022-10-18T13:44:13.642Z,0.70
2022-10-18T13:46:40.145Z,0.60
2022-10-18T13:49:36.872Z,0.60
2022-10-18T13:52:28.263Z,0.70
2022-10-18T13:55:16.393Z,0.50
2022-10-18T13:58:00.583Z,0.47
2022-10-18T14:00:49.050Z,0.40
2022-10-18T14:04:03.099Z,0.50
2022-10-18T14:06:40.426Z,0.53
2022-10-18T14:09:43.784Z,0.67
2022-10-18T14:12:22.873Z,0.50
2022-10-18T14:15:02.600Z,0.60
2022-10-18T14:17:53.366Z,0.50
2022-10-18T14:20:29.404Z,0.77
2022-10-18T14:23:14.793Z,0.60
2022-10-18T14:25:42.162Z,0.53
2022-10-18T14:28:27.292Z,0.60
2022-10-18T14:31:09.370Z,0.70
2022-10-18T14:33:37.155Z,0.67
2022-10-18T14:36:15.643Z,0.60
2022-10-18T14:38:53.502Z,0.67
2022-10-18T14:41:20.054Z,0.80
2022-10-18T14:43:48.218Z,0.70
2022-10-18T14:46:19.683Z,0.40
2022-10-18T14:48:58.015Z,0.70
2022-10-18T14:51:25.705Z,0.70
2022-10-18T14:53:53.579Z,0.70
2022-10-18T14:56:31.664Z,0.53
2022-10-18T14:59:04.619Z,0.70
2022-10-18T15:01:32.919Z,0.50
2022-10-18T15:04:10.451Z,0.60
2022-10-18T15:06:42.746Z,0.90
2022-10-18T15:09:11.683Z,0.93
2022-10-18T15:11:41.548Z,0.80
2022-10-18T15:14:16.451Z,0.93
2022-10-18T15:16:43.412Z,0.63
2022-10-18T15:19:15.889Z,0.50
2022-10-18T15:22:08.056Z,0.30
2022-10-18T15:24:42.097Z,0.40
2022-10-18T15:27:20.926Z,0.40
2022-10-18T15:29:47.808Z,0.30
2022-10-18T15:32:30.427Z,0.30
2022-10-18T15:35:18.496Z,0.30
2022-10-18T15:37:48.618Z,0.47
2022-10-18T15:40:29.194Z,0.30
2022-10-18T15:43:05.847Z,0.40
2022-10-18T15:45:45.529Z,0.50
2022-10-18T15:48:15.320Z,0.57
2022-10-18T15:50:44.710Z,0.50
2022-10-18T15:53:41.777Z,0.50
2022-10-18T15:56:33.177Z,0.60
2022-10-18T15:59:06.020Z,0.60
2022-10-18T16:01:37.296Z,0.60
2022-10-18T16:04:23.406Z,0.70
2022-10-18T16:06:50.987Z,0.70
2022-10-18T16:09:20.353Z,0.50
2022-10-18T16:11:57.187Z,0.50
2022-10-18T16:14:26.203Z,0.97
2022-10-18T16:17:02.459Z,0.60
2022-10-18T16:19:30.869Z,0.40
2022-10-18T16:22:05.182Z,0.50
2022-10-18T16:24:34.248Z,0.70
2022-10-18T16:27:03.489Z,0.60
2022-10-18T16:29:39.855Z,0.70
2022-10-18T16:32:19.741Z,0.50
2022-10-18T16:34:52.437Z,0.43
2022-10-18T16:37:22.343Z,0.50
2022-10-18T16:39:52.742Z,0.40
2022-10-18T16:42:23.312Z,0.57
2022-10-18T16:45:11.416Z,0.60
2022-10-18T16:47:45.959Z,0.30
2022-10-18T16:50:21.721Z,0.50
2022-10-18T16:52:48.357Z,0.40
2022-10-18T16:55:17.230Z,0.50
2022-10-18T16:57:44.016Z,0.60
2022-10-18T17:00:18.844Z,0.40
2022-10-18T17:02:45.489Z,0.50
2022-10-18T17:05:12.064Z,0.60
2022-10-18T17:07:38.853Z,0.50
2022-10-18T17:10:05.994Z,0.60
2022-10-18T17:12:32.969Z,0.73
2022-10-18T17:15:05.413Z,0.43
2022-10-18T17:17:32.414Z,0.73
2022-10-18T17:19:59.415Z,0.60
2022-10-18T17:22:36.411Z,0.57
2022-10-18T17:25:07.315Z,0.60
2022-10-18T17:27:34.301Z,0.80
2022-10-18T17:30:33.155Z,0.50
2022-10-18T17:33:08.361Z,0.80
2022-10-18T17:35:37.241Z,0.70
2022-10-18T17:38:08.807Z,0.63
2022-10-18T17:40:35.574Z,0.63
2022-10-18T17:43:06.416Z,0.70
2022-10-18T17:46:07.728Z,0.80
2022-10-18T17:48:50.314Z,0.80
2022-10-18T17:51:37.533Z,0.77
2022-10-18T17:54:09.706Z,0.90
2022-10-18T17:59:38.583Z,0.60
2022-10-18T18:02:13.887Z,0.70
2022-10-18T18:04:52.470Z,0.60
2022-10-18T18:07:28.340Z,0.60
2022-10-18T18:10:11.491Z,0.60
2022-10-18T18:12:47.533Z,0.40
2022-10-18T18:15:19.477Z,0.50
2022-10-18T18:17:57.011Z,0.50
2022-10-18T18:20:35.170Z,0.40
2022-10-18T18:23:07.129Z,0.50
2022-10-18T18:25:37.156Z,0.50
2022-10-18T18:28:07.834Z,0.50
2022-10-18T18:30:37.767Z,0.50
2022-10-18T18:33:07.613Z,0.53
2022-10-18T18:35:34.937Z,0.40
2022-10-18T18:38:08.015Z,0.30
2022-10-18T18:40:34.870Z,0.50
2022-10-18T18:43:18.956Z,2.23
2022-10-18T18:45:54.580Z,4.60
2022-10-18T18:48:21.612Z,1.13
2022-10-18T18:50:52.344Z,0.60
2022-10-18T18:53:19.566Z,2.67
2022-10-18T18:55:47.028Z,0.50
2022-10-18T18:58:15.890Z,0.63
2022-10-18T19:00:44.572Z,0.60
2022-10-18T19:03:17.392Z,0.60
2022-10-18T19:05:44.150Z,0.40
2022-10-18T19:08:10.830Z,0.73
2022-10-18T19:10:37.471Z,0.70
2022-10-18T19:13:04.103Z,0.53
2022-10-18T19:15:30.871Z,0.70
2022-10-18T19:17:57.760Z,0.60
2022-10-18T19:20:24.418Z,0.70
2022-10-18T19:22:51.427Z,0.70
2022-10-18T19:25:18.883Z,0.50
2022-10-18T19:27:46.847Z,0.70
2022-10-18T19:30:13.462Z,0.50
2022-10-18T19:32:40.264Z,0.70
2022-10-18T19:35:07.157Z,0.70
2022-10-18T19:37:34.019Z,0.60
2022-10-18T19:40:00.897Z,0.70
2022-10-18T19:42:31.067Z,0.77
2022-10-18T19:44:58.147Z,0.70
2022-10-18T19:47:24.779Z,0.50
2022-10-18T19:49:52.778Z,0.50
2022-10-18T19:52:19.418Z,0.80
2022-10-18T19:54:49.173Z,0.60
2022-10-18T19:57:15.774Z,0.60
2022-10-18T19:59:42.443Z,0.70
2022-10-18T20:02:13.419Z,0.60
2022-10-18T20:04:40.137Z,0.50
2022-10-18T20:07:06.874Z,0.53
2022-10-18T20:09:33.870Z,0.60
2022-10-18T20:12:00.545Z,0.60
2022-10-18T20:14:27.193Z,0.63
2022-10-18T20:16:53.866Z,0.70
2022-10-18T20:19:21.615Z,0.57
2022-10-18T20:21:48.296Z,0.83
2022-10-18T20:24:14.979Z,0.50
2022-10-18T20:26:43.452Z,0.70
2022-10-18T20:29:12.615Z,0.53
2022-10-18T20:31:39.576Z,0.70
2022-10-18T20:34:09.144Z,0.50
2022-10-18T20:36:37.194Z,0.50
2022-10-18T20:39:04.426Z,0.60
2022-10-18T20:41:39.954Z,0.60
2022-10-18T20:44:11.538Z,0.40
2022-10-18T20:46:38.955Z,0.50
2022-10-18T20:49:10.778Z,0.40
2022-10-18T20:51:37.437Z,0.40
2022-10-18T20:56:38.772Z,0.30
2022-10-18T20:59:10.578Z,0.40
2022-10-18T21:01:39.023Z,0.40
2022-10-18T21:04:07.715Z,0.33
2022-10-18T21:06:37.507Z,0.37
2022-10-18T21:09:07.279Z,0.30
2022-10-18T21:11:39.320Z,0.43
2022-10-18T21:14:07.611Z,0.20
2022-10-18T21:16:35.502Z,0.20
2022-10-18T21:19:14.458Z,0.20
2022-10-18T21:21:44.008Z,0.20
2022-10-18T21:24:12.218Z,0.20
2022-10-18T21:26:39.315Z,0.33
2022-10-18T21:29:06.661Z,0.20
2022-10-18T21:31:35.573Z,0.30
2022-10-18T21:34:05.032Z,0.30
2022-10-18T21:36:33.845Z,0.20
2022-10-18T21:39:00.538Z,0.30
2022-10-18T21:41:27.281Z,0.10
2022-10-18T21:43:54.971Z,0.20
2022-10-18T21:46:22.938Z,0.30
2022-10-18T21:48:51.530Z,0.30
2022-10-18T21:51:20.115Z,0.10
2022-10-18T21:53:49.553Z,0.30
2022-10-18T21:56:21.777Z,0.30
2022-10-18T21:58:48.499Z,0.20
2022-10-18T22:01:18.530Z,0.20
2022-10-18T22:03:47.582Z,0.30
2022-10-18T22:06:15.285Z,0.30
2022-10-18T22:08:52.994Z,0.20
2022-10-18T22:11:23.224Z,0.20
2022-10-18T22:13:50.054Z,0.30
2022-10-18T22:16:17.349Z,0.17
2022-10-18T22:18:45.210Z,0.20
2022-10-18T22:21:16.001Z,0.20
2022-10-18T22:23:48.485Z,0.20
2022-10-18T22:26:27.091Z,0.20
2022-10-18T22:29:02.089Z,0.20
2022-10-18T22:31:32.197Z,0.27
2022-10-18T22:34:01.875Z,0.20
2022-10-18T22:36:29.181Z,0.20
2022-10-18T22:38:56.189Z,0.20
2022-10-18T22:41:22.945Z,0.20
2022-10-18T22:43:53.751Z,0.20
2022-10-18T22:46:20.891Z,0.17
2022-10-18T22:48:47.904Z,0.20
2022-10-18T22:51:14.619Z,0.20
2022-10-18T22:53:44.931Z,0.20
2022-10-18T22:56:15.362Z,0.10
2022-10-18T22:58:41.995Z,0.27
2022-10-18T23:01:14.213Z,0.20
2022-10-18T23:03:42.907Z,0.30
2022-10-18T23:06:23.373Z,0.20
2022-10-18T23:08:50.876Z,0.27
2022-10-18T23:11:18.141Z,0.20
2022-10-18T23:13:45.223Z,0.17
2022-10-18T23:16:11.929Z,0.20
2022-10-18T23:21:12.167Z,0.20
2022-10-18T23:23:40.653Z,0.13
2022-10-18T23:26:13.009Z,0.20
2022-10-18T23:28:43.857Z,0.30
2022-10-18T23:31:16.675Z,0.20
2022-10-18T23:33:43.533Z,0.20
2022-10-18T23:36:10.800Z,0.20
2022-10-18T23:38:38.853Z,0.17
2022-10-18T23:41:06.841Z,0.20
2022-10-18T23:43:36.121Z,0.10
2022-10-18T23:46:02.801Z,0.10
2022-10-18T23:48:29.497Z,0.20
2022-10-18T23:50:59.250Z,0.20
2022-10-18T23:53:26.002Z,0.20
2022-10-18T23:56:01.697Z,0.10
2022-10-18T23:58:30.345Z,0.20
